sensor_id;sensor_type;location;lat;lon;timestamp;temperature;humidity
52187;DHT22;38161;53.020;6.598;2024-03-02T00:00:11;6.90;99.90
52187;DHT22;38161;53.020;6.598;2024-03-02T00:02:45;6.90;99.90
52187;DHT22;38161;53.020;6.598;2024-03-02T00:05:12;6.90;99.90
52187;DHT22;38161;53.020;6.598;2024-03-02T00:07:42;6.90;99.90
52187;DHT22;38161;53.020;6.598;2024-03-02T00:10:10;6.90;99.90
52187;DHT22;38161;53.020;6.598;2024-03-02T00:12:37;6.90;99.90
52187;DHT22;38161;53.020;6.598;2024-03-02T00:15:30;6.90;99.90
52187;DHT22;38161;53.020;6.598;2024-03-02T00:17:56;6.80;99.90
52187;DHT22;38161;53.020;6.598;2024-03-02T00:20:23;6.80;99.90
52187;DHT22;38161;53.020;6.598;2024-03-02T00:22:52;6.80;99.90
52187;DHT22;38161;53.020;6.598;2024-03-02T00:25:19;6.80;99.90
52187;DHT22;38161;53.020;6.598;2024-03-02T00:27:48;6.80;99.90
52187;DHT22;38161;53.020;6.598;2024-03-02T00:31:03;6.80;99.90
52187;DHT22;38161;53.020;6.598;2024-03-02T00:36:06;6.80;99.90
52187;DHT22;38161;53.020;6.598;2024-03-02T00:38:33;6.80;99.90
52187;DHT22;38161;53.020;6.598;2024-03-02T00:41:05;6.80;99.90
52187;DHT22;38161;53.020;6.598;2024-03-02T00:46:11;6.80;99.90
52187;DHT22;38161;53.020;6.598;2024-03-02T00:48:39;6.90;99.90
52187;DHT22;38161;53.020;6.598;2024-03-02T00:51:08;6.90;99.90
52187;DHT22;38161;53.020;6.598;2024-03-02T00:53:34;6.90;99.90
52187;DHT22;38161;53.020;6.598;2024-03-02T00:56:01;6.90;99.90
52187;DHT22;38161;53.020;6.598;2024-03-02T00:58:27;6.90;99.90
52187;DHT22;38161;53.020;6.598;2024-03-02T01:00:53;6.90;99.90
52187;DHT22;38161;53.020;6.598;2024-03-02T01:03:18;6.90;99.90
52187;DHT22;38161;53.020;6.598;2024-03-02T01:05:45;6.90;99.90
52187;DHT22;38161;53.020;6.598;2024-03-02T01:08:11;7.00;99.90
52187;DHT22;38161;53.020;6.598;2024-03-02T01:10:37;7.00;99.90
52187;DHT22;38161;53.020;6.598;2024-03-02T01:13:03;7.00;99.90
52187;DHT22;38161;53.020;6.598;2024-03-02T01:15:28;7.00;99.90
52187;DHT22;38161;53.020;6.598;2024-03-02T01:17:54;7.00;99.90
52187;DHT22;38161;53.020;6.598;2024-03-02T01:20:20;7.10;99.90
52187;DHT22;38161;53.020;6.598;2024-03-02T01:22:47;7.10;99.90
52187;DHT22;38161;53.020;6.598;2024-03-02T01:25:13;7.10;99.90
52187;DHT22;38161;53.020;6.598;2024-03-02T01:27:39;7.00;99.90
52187;DHT22;38161;53.020;6.598;2024-03-02T01:30:05;7.10;99.90
52187;DHT22;38161;53.020;6.598;2024-03-02T01:32:31;7.10;99.90
52187;DHT22;38161;53.020;6.598;2024-03-02T01:34:57;7.10;99.90
52187;DHT22;38161;53.020;6.598;2024-03-02T01:37:23;7.10;99.90
52187;DHT22;38161;53.020;6.598;2024-03-02T01:39:49;7.10;99.90
52187;DHT22;38161;53.020;6.598;2024-03-02T01:42:15;7.10;99.90
52187;DHT22;38161;53.020;6.598;2024-03-02T01:44:41;7.10;99.90
52187;DHT22;38161;53.020;6.598;2024-03-02T01:47:07;7.10;99.90
52187;DHT22;38161;53.020;6.598;2024-03-02T01:49:33;7.10;99.90
52187;DHT22;38161;53.020;6.598;2024-03-02T01:51:59;7.10;99.90
52187;DHT22;38161;53.020;6.598;2024-03-02T01:54:25;7.10;99.90
52187;DHT22;38161;53.020;6.598;2024-03-02T01:56:51;7.10;99.90
52187;DHT22;38161;53.020;6.598;2024-03-02T01:59:17;7.00;99.90
52187;DHT22;38161;53.020;6.598;2024-03-02T02:01:43;7.00;99.90
52187;DHT22;38161;53.020;6.598;2024-03-02T02:04:09;7.00;99.90
52187;DHT22;38161;53.020;6.598;2024-03-02T02:06:35;7.00;99.90
52187;DHT22;38161;53.020;6.598;2024-03-02T02:09:01;7.00;99.90
52187;DHT22;38161;53.020;6.598;2024-03-02T02:11:26;7.00;99.90
52187;DHT22;38161;53.020;6.598;2024-03-02T02:13:52;7.00;99.90
52187;DHT22;38161;53.020;6.598;2024-03-02T02:16:21;7.00;99.90
52187;DHT22;38161;53.020;6.598;2024-03-02T02:18:47;7.00;99.90
52187;DHT22;38161;53.020;6.598;2024-03-02T02:21:12;7.00;99.90
52187;DHT22;38161;53.020;6.598;2024-03-02T02:23:38;7.00;99.90
52187;DHT22;38161;53.020;6.598;2024-03-02T02:26:04;7.00;99.90
52187;DHT22;38161;53.020;6.598;2024-03-02T02:28:30;7.00;99.90
52187;DHT22;38161;53.020;6.598;2024-03-02T02:30:56;6.90;99.90
52187;DHT22;38161;53.020;6.598;2024-03-02T02:33:22;6.90;99.90
52187;DHT22;38161;53.020;6.598;2024-03-02T02:35:48;6.90;99.90
52187;DHT22;38161;53.020;6.598;2024-03-02T02:38:14;6.90;99.90
52187;DHT22;38161;53.020;6.598;2024-03-02T02:40:39;6.90;99.90
52187;DHT22;38161;53.020;6.598;2024-03-02T02:43:05;6.90;99.90
52187;DHT22;38161;53.020;6.598;2024-03-02T02:45:32;6.90;99.90
52187;DHT22;38161;53.020;6.598;2024-03-02T02:47:58;7.00;99.90
52187;DHT22;38161;53.020;6.598;2024-03-02T02:50:24;6.90;99.90
52187;DHT22;38161;53.020;6.598;2024-03-02T02:52:49;7.00;99.90
52187;DHT22;38161;53.020;6.598;2024-03-02T02:55:16;7.00;99.90
52187;DHT22;38161;53.020;6.598;2024-03-02T02:57:42;7.00;99.90
52187;DHT22;38161;53.020;6.598;2024-03-02T03:00:10;7.00;99.90
52187;DHT22;38161;53.020;6.598;2024-03-02T03:02:43;7.00;99.90
52187;DHT22;38161;53.020;6.598;2024-03-02T03:05:10;7.00;99.90
52187;DHT22;38161;53.020;6.598;2024-03-02T03:07:37;7.10;99.90
52187;DHT22;38161;53.020;6.598;2024-03-02T03:10:03;7.10;99.90
52187;DHT22;38161;53.020;6.598;2024-03-02T03:12:30;7.20;99.90
52187;DHT22;38161;53.020;6.598;2024-03-02T03:14:57;7.30;99.90
52187;DHT22;38161;53.020;6.598;2024-03-02T03:17:23;7.30;99.90
52187;DHT22;38161;53.020;6.598;2024-03-02T03:19:49;7.30;99.90
52187;DHT22;38161;53.020;6.598;2024-03-02T03:22:15;7.40;99.90
52187;DHT22;38161;53.020;6.598;2024-03-02T03:24:41;7.40;99.90
52187;DHT22;38161;53.020;6.598;2024-03-02T03:27:06;7.40;99.90
52187;DHT22;38161;53.020;6.598;2024-03-02T03:29:32;7.40;99.90
52187;DHT22;38161;53.020;6.598;2024-03-02T03:31:58;7.40;99.90
52187;DHT22;38161;53.020;6.598;2024-03-02T03:34:24;7.40;99.90
52187;DHT22;38161;53.020;6.598;2024-03-02T03:36:50;7.40;99.90
52187;DHT22;38161;53.020;6.598;2024-03-02T03:39:15;7.40;99.90
52187;DHT22;38161;53.020;6.598;2024-03-02T03:41:41;7.40;99.90
52187;DHT22;38161;53.020;6.598;2024-03-02T03:44:07;7.40;99.90
52187;DHT22;38161;53.020;6.598;2024-03-02T03:46:33;7.40;99.90
52187;DHT22;38161;53.020;6.598;2024-03-02T03:48:58;7.40;99.90
52187;DHT22;38161;53.020;6.598;2024-03-02T03:51:24;7.40;99.90
52187;DHT22;38161;53.020;6.598;2024-03-02T03:53:50;7.40;99.90
52187;DHT22;38161;53.020;6.598;2024-03-02T03:56:16;7.30;99.90
52187;DHT22;38161;53.020;6.598;2024-03-02T03:58:42;7.40;99.90
52187;DHT22;38161;53.020;6.598;2024-03-02T04:01:07;7.30;99.90
52187;DHT22;38161;53.020;6.598;2024-03-02T04:03:33;7.30;99.90
52187;DHT22;38161;53.020;6.598;2024-03-02T04:05:59;7.30;99.90
52187;DHT22;38161;53.020;6.598;2024-03-02T04:08:25;7.30;99.90
52187;DHT22;38161;53.020;6.598;2024-03-02T04:10:51;7.30;99.90
52187;DHT22;38161;53.020;6.598;2024-03-02T04:13:16;7.30;99.90
52187;DHT22;38161;53.020;6.598;2024-03-02T04:15:42;7.30;99.90
52187;DHT22;38161;53.020;6.598;2024-03-02T04:18:08;7.30;99.90
52187;DHT22;38161;53.020;6.598;2024-03-02T04:20:34;7.30;99.90
52187;DHT22;38161;53.020;6.598;2024-03-02T04:22:59;7.30;99.90
52187;DHT22;38161;53.020;6.598;2024-03-02T04:25:25;7.30;99.90
52187;DHT22;38161;53.020;6.598;2024-03-02T04:27:51;7.30;99.90
52187;DHT22;38161;53.020;6.598;2024-03-02T04:30:17;7.30;99.90
52187;DHT22;38161;53.020;6.598;2024-03-02T04:32:42;7.20;99.90
52187;DHT22;38161;53.020;6.598;2024-03-02T04:35:11;7.30;99.90
52187;DHT22;38161;53.020;6.598;2024-03-02T04:37:38;7.30;99.90
52187;DHT22;38161;53.020;6.598;2024-03-02T04:40:05;7.30;99.90
52187;DHT22;38161;53.020;6.598;2024-03-02T04:42:34;7.20;99.90
52187;DHT22;38161;53.020;6.598;2024-03-02T04:45:00;7.30;99.90
52187;DHT22;38161;53.020;6.598;2024-03-02T04:47:25;7.20;99.90
52187;DHT22;38161;53.020;6.598;2024-03-02T04:49:51;7.30;99.90
52187;DHT22;38161;53.020;6.598;2024-03-02T04:52:17;7.20;99.90
52187;DHT22;38161;53.020;6.598;2024-03-02T04:54:43;7.20;99.90
52187;DHT22;38161;53.020;6.598;2024-03-02T04:57:38;7.20;99.90
52187;DHT22;38161;53.020;6.598;2024-03-02T05:00:05;7.20;99.90
52187;DHT22;38161;53.020;6.598;2024-03-02T05:02:32;7.20;99.90
52187;DHT22;38161;53.020;6.598;2024-03-02T05:04:58;7.20;99.90
52187;DHT22;38161;53.020;6.598;2024-03-02T05:07:24;7.20;99.90
52187;DHT22;38161;53.020;6.598;2024-03-02T05:09:49;7.20;99.90
52187;DHT22;38161;53.020;6.598;2024-03-02T05:12:15;7.20;99.90
52187;DHT22;38161;53.020;6.598;2024-03-02T05:15:00;7.20;99.90
52187;DHT22;38161;53.020;6.598;2024-03-02T05:17:25;7.10;99.90
52187;DHT22;38161;53.020;6.598;2024-03-02T05:19:51;7.10;99.90
52187;DHT22;38161;53.020;6.598;2024-03-02T05:22:17;7.10;99.90
52187;DHT22;38161;53.020;6.598;2024-03-02T05:24:43;7.10;99.90
52187;DHT22;38161;53.020;6.598;2024-03-02T05:27:08;7.10;99.90
52187;DHT22;38161;53.020;6.598;2024-03-02T05:29:34;7.00;99.90
52187;DHT22;38161;53.020;6.598;2024-03-02T05:32:00;7.00;99.90
52187;DHT22;38161;53.020;6.598;2024-03-02T05:34:26;7.00;99.90
52187;DHT22;38161;53.020;6.598;2024-03-02T05:36:52;7.00;99.90
52187;DHT22;38161;53.020;6.598;2024-03-02T05:39:18;6.90;99.90
52187;DHT22;38161;53.020;6.598;2024-03-02T05:41:43;7.00;99.90
52187;DHT22;38161;53.020;6.598;2024-03-02T05:44:09;6.90;99.90
52187;DHT22;38161;53.020;6.598;2024-03-02T05:46:35;6.90;99.90
52187;DHT22;38161;53.020;6.598;2024-03-02T05:49:01;7.00;99.90
52187;DHT22;38161;53.020;6.598;2024-03-02T05:51:27;7.00;99.90
52187;DHT22;38161;53.020;6.598;2024-03-02T05:53:53;7.00;99.90
52187;DHT22;38161;53.020;6.598;2024-03-02T05:56:18;7.10;99.90
52187;DHT22;38161;53.020;6.598;2024-03-02T05:58:44;7.10;99.90
52187;DHT22;38161;53.020;6.598;2024-03-02T06:01:29;7.10;99.90
52187;DHT22;38161;53.020;6.598;2024-03-02T06:03:56;7.10;99.90
52187;DHT22;38161;53.020;6.598;2024-03-02T06:06:23;7.10;99.90
52187;DHT22;38161;53.020;6.598;2024-03-02T06:08:48;7.10;99.90
52187;DHT22;38161;53.020;6.598;2024-03-02T06:11:14;7.10;99.90
52187;DHT22;38161;53.020;6.598;2024-03-02T06:13:40;7.10;99.90
52187;DHT22;38161;53.020;6.598;2024-03-02T06:16:06;7.10;99.90
52187;DHT22;38161;53.020;6.598;2024-03-02T06:18:32;7.10;99.90
52187;DHT22;38161;53.020;6.598;2024-03-02T06:20:58;7.00;99.90
52187;DHT22;38161;53.020;6.598;2024-03-02T06:23:23;7.00;99.90
52187;DHT22;38161;53.020;6.598;2024-03-02T06:25:49;7.00;99.90
52187;DHT22;38161;53.020;6.598;2024-03-02T06:28:15;7.00;99.90
52187;DHT22;38161;53.020;6.598;2024-03-02T06:30:41;7.00;99.90
52187;DHT22;38161;53.020;6.598;2024-03-02T06:33:09;6.90;99.90
52187;DHT22;38161;53.020;6.598;2024-03-02T06:35:35;6.90;99.90
52187;DHT22;38161;53.020;6.598;2024-03-02T06:38:01;6.90;99.90
52187;DHT22;38161;53.020;6.598;2024-03-02T06:40:27;6.80;99.90
52187;DHT22;38161;53.020;6.598;2024-03-02T06:42:53;6.80;99.90
52187;DHT22;38161;53.020;6.598;2024-03-02T06:45:19;6.80;99.90
52187;DHT22;38161;53.020;6.598;2024-03-02T06:47:45;6.70;99.90
52187;DHT22;38161;53.020;6.598;2024-03-02T06:50:11;6.60;99.90
52187;DHT22;38161;53.020;6.598;2024-03-02T06:52:37;6.60;99.90
52187;DHT22;38161;53.020;6.598;2024-03-02T06:55:03;6.50;99.90
52187;DHT22;38161;53.020;6.598;2024-03-02T06:57:30;6.50;99.90
52187;DHT22;38161;53.020;6.598;2024-03-02T06:59:55;6.40;99.90
52187;DHT22;38161;53.020;6.598;2024-03-02T07:02:27;6.40;99.90
52187;DHT22;38161;53.020;6.598;2024-03-02T07:04:55;6.40;99.90
52187;DHT22;38161;53.020;6.598;2024-03-02T07:07:21;6.40;99.90
52187;DHT22;38161;53.020;6.598;2024-03-02T07:09:47;6.40;99.90
52187;DHT22;38161;53.020;6.598;2024-03-02T07:12:13;6.50;99.90
52187;DHT22;38161;53.020;6.598;2024-03-02T07:14:40;6.50;99.90
52187;DHT22;38161;53.020;6.598;2024-03-02T07:17:23;6.50;99.90
52187;DHT22;38161;53.020;6.598;2024-03-02T07:19:50;6.50;99.90
52187;DHT22;38161;53.020;6.598;2024-03-02T07:22:16;6.60;99.90
52187;DHT22;38161;53.020;6.598;2024-03-02T07:24:42;6.60;99.90
52187;DHT22;38161;53.020;6.598;2024-03-02T07:27:09;6.60;99.90
52187;DHT22;38161;53.020;6.598;2024-03-02T07:29:35;6.60;99.90
52187;DHT22;38161;53.020;6.598;2024-03-02T07:32:01;6.60;99.90
52187;DHT22;38161;53.020;6.598;2024-03-02T07:34:27;6.60;99.90
52187;DHT22;38161;53.020;6.598;2024-03-02T07:36:53;6.60;99.90
52187;DHT22;38161;53.020;6.598;2024-03-02T07:39:19;6.70;99.90
52187;DHT22;38161;53.020;6.598;2024-03-02T07:41:45;6.70;99.90
52187;DHT22;38161;53.020;6.598;2024-03-02T07:44:11;6.70;99.90
52187;DHT22;38161;53.020;6.598;2024-03-02T07:46:43;6.70;99.90
52187;DHT22;38161;53.020;6.598;2024-03-02T07:49:09;6.70;99.90
52187;DHT22;38161;53.020;6.598;2024-03-02T07:51:35;6.70;99.90
52187;DHT22;38161;53.020;6.598;2024-03-02T07:54:04;6.80;99.90
52187;DHT22;38161;53.020;6.598;2024-03-02T07:56:30;6.80;99.90
52187;DHT22;38161;53.020;6.598;2024-03-02T07:58:56;6.90;99.90
52187;DHT22;38161;53.020;6.598;2024-03-02T08:01:27;6.80;99.90
52187;DHT22;38161;53.020;6.598;2024-03-02T08:03:55;6.90;99.90
52187;DHT22;38161;53.020;6.598;2024-03-02T08:06:29;6.90;99.90
52187;DHT22;38161;53.020;6.598;2024-03-02T08:08:59;7.00;99.90
52187;DHT22;38161;53.020;6.598;2024-03-02T08:11:25;7.00;99.90
52187;DHT22;38161;53.020;6.598;2024-03-02T08:13:53;7.10;99.90
52187;DHT22;38161;53.020;6.598;2024-03-02T08:16:22;7.20;99.90
52187;DHT22;38161;53.020;6.598;2024-03-02T08:18:49;7.20;99.90
52187;DHT22;38161;53.020;6.598;2024-03-02T08:21:15;7.30;99.90
52187;DHT22;38161;53.020;6.598;2024-03-02T08:23:42;7.40;99.90
52187;DHT22;38161;53.020;6.598;2024-03-02T08:26:09;7.50;99.90
52187;DHT22;38161;53.020;6.598;2024-03-02T08:28:35;7.60;99.90
52187;DHT22;38161;53.020;6.598;2024-03-02T08:31:03;7.70;99.90
52187;DHT22;38161;53.020;6.598;2024-03-02T08:33:29;7.80;99.90
52187;DHT22;38161;53.020;6.598;2024-03-02T08:35:55;8.00;99.90
52187;DHT22;38161;53.020;6.598;2024-03-02T08:38:21;8.20;99.90
52187;DHT22;38161;53.020;6.598;2024-03-02T08:40:47;8.30;99.90
52187;DHT22;38161;53.020;6.598;2024-03-02T08:43:14;8.50;99.90
52187;DHT22;38161;53.020;6.598;2024-03-02T08:45:41;8.60;99.90
52187;DHT22;38161;53.020;6.598;2024-03-02T08:48:10;8.60;99.90
52187;DHT22;38161;53.020;6.598;2024-03-02T08:50:36;8.70;99.90
52187;DHT22;38161;53.020;6.598;2024-03-02T08:53:03;8.70;99.90
52187;DHT22;38161;53.020;6.598;2024-03-02T08:55:29;8.80;99.90
52187;DHT22;38161;53.020;6.598;2024-03-02T08:57:56;8.80;99.90
52187;DHT22;38161;53.020;6.598;2024-03-02T09:00:22;8.80;99.90
52187;DHT22;38161;53.020;6.598;2024-03-02T09:02:48;8.90;99.90
52187;DHT22;38161;53.020;6.598;2024-03-02T09:05:14;9.00;99.90
52187;DHT22;38161;53.020;6.598;2024-03-02T09:07:40;9.00;99.90
52187;DHT22;38161;53.020;6.598;2024-03-02T09:10:06;9.00;99.90
52187;DHT22;38161;53.020;6.598;2024-03-02T09:12:33;9.10;99.90
52187;DHT22;38161;53.020;6.598;2024-03-02T09:15:00;9.10;99.90
52187;DHT22;38161;53.020;6.598;2024-03-02T09:17:26;9.10;99.90
52187;DHT22;38161;53.020;6.598;2024-03-02T09:19:52;9.20;99.90
52187;DHT22;38161;53.020;6.598;2024-03-02T09:22:19;9.30;99.90
52187;DHT22;38161;53.020;6.598;2024-03-02T09:24:44;9.40;99.90
52187;DHT22;38161;53.020;6.598;2024-03-02T09:27:10;9.50;99.90
52187;DHT22;38161;53.020;6.598;2024-03-02T09:29:36;9.60;99.90
52187;DHT22;38161;53.020;6.598;2024-03-02T09:32:02;9.80;99.90
52187;DHT22;38161;53.020;6.598;2024-03-02T09:34:28;10.00;99.90
52187;DHT22;38161;53.020;6.598;2024-03-02T09:36:54;10.10;99.90
52187;DHT22;38161;53.020;6.598;2024-03-02T09:39:20;10.00;99.90
52187;DHT22;38161;53.020;6.598;2024-03-02T09:41:47;10.00;99.90
52187;DHT22;38161;53.020;6.598;2024-03-02T09:44:13;9.80;99.90
52187;DHT22;38161;53.020;6.598;2024-03-02T09:46:39;9.70;99.90
52187;DHT22;38161;53.020;6.598;2024-03-02T09:49:06;9.70;99.90
52187;DHT22;38161;53.020;6.598;2024-03-02T09:51:32;9.50;99.90
52187;DHT22;38161;53.020;6.598;2024-03-02T09:53:57;9.60;99.90
52187;DHT22;38161;53.020;6.598;2024-03-02T09:56:26;9.50;99.90
52187;DHT22;38161;53.020;6.598;2024-03-02T09:58:52;9.70;99.90
52187;DHT22;38161;53.020;6.598;2024-03-02T10:01:17;10.10;99.90
52187;DHT22;38161;53.020;6.598;2024-03-02T10:03:44;10.40;99.90
52187;DHT22;38161;53.020;6.598;2024-03-02T10:06:20;10.70;99.90
52187;DHT22;38161;53.020;6.598;2024-03-02T10:08:46;10.80;99.90
52187;DHT22;38161;53.020;6.598;2024-03-02T10:11:34;11.00;99.90
52187;DHT22;38161;53.020;6.598;2024-03-02T10:14:12;11.30;99.90
52187;DHT22;38161;53.020;6.598;2024-03-02T10:16:40;11.30;99.90
52187;DHT22;38161;53.020;6.598;2024-03-02T10:19:22;11.20;99.90
52187;DHT22;38161;53.020;6.598;2024-03-02T10:21:54;11.30;99.90
52187;DHT22;38161;53.020;6.598;2024-03-02T10:24:22;11.20;99.90
52187;DHT22;38161;53.020;6.598;2024-03-02T10:26:48;11.10;99.90
52187;DHT22;38161;53.020;6.598;2024-03-02T10:29:15;11.00;99.90
52187;DHT22;38161;53.020;6.598;2024-03-02T10:31:45;11.00;99.90
52187;DHT22;38161;53.020;6.598;2024-03-02T10:34:14;10.80;99.90
52187;DHT22;38161;53.020;6.598;2024-03-02T10:36:43;10.90;99.90
52187;DHT22;38161;53.020;6.598;2024-03-02T10:39:09;11.00;99.90
52187;DHT22;38161;53.020;6.598;2024-03-02T10:41:37;11.20;99.90
52187;DHT22;38161;53.020;6.598;2024-03-02T10:44:05;11.50;99.90
52187;DHT22;38161;53.020;6.598;2024-03-02T10:46:32;11.60;99.90
52187;DHT22;38161;53.020;6.598;2024-03-02T10:48:59;11.60;99.90
52187;DHT22;38161;53.020;6.598;2024-03-02T10:51:30;11.50;99.90
52187;DHT22;38161;53.020;6.598;2024-03-02T10:54:00;11.70;99.90
52187;DHT22;38161;53.020;6.598;2024-03-02T10:56:39;12.20;99.90
52187;DHT22;38161;53.020;6.598;2024-03-02T11:01:50;12.30;99.90
52187;DHT22;38161;53.020;6.598;2024-03-02T11:04:19;12.40;99.90
52187;DHT22;38161;53.020;6.598;2024-03-02T11:06:51;12.50;99.90
52187;DHT22;38161;53.020;6.598;2024-03-02T11:09:22;12.80;99.90
52187;DHT22;38161;53.020;6.598;2024-03-02T11:12:09;13.20;99.90
52187;DHT22;38161;53.020;6.598;2024-03-02T11:14:41;13.20;99.90
52187;DHT22;38161;53.020;6.598;2024-03-02T11:17:11;13.20;99.90
52187;DHT22;38161;53.020;6.598;2024-03-02T11:19:39;13.00;99.90
52187;DHT22;38161;53.020;6.598;2024-03-02T11:22:06;12.80;99.90
52187;DHT22;38161;53.020;6.598;2024-03-02T11:24:32;12.80;99.90
52187;DHT22;38161;53.020;6.598;2024-03-02T11:26:59;12.70;99.90
52187;DHT22;38161;53.020;6.598;2024-03-02T11:32:21;12.30;99.90
52187;DHT22;38161;53.020;6.598;2024-03-02T11:34:49;12.20;99.90
52187;DHT22;38161;53.020;6.598;2024-03-02T11:37:16;12.30;99.90
52187;DHT22;38161;53.020;6.598;2024-03-02T11:39:44;12.60;99.90
52187;DHT22;38161;53.020;6.598;2024-03-02T11:42:12;12.90;99.90
52187;DHT22;38161;53.020;6.598;2024-03-02T11:44:42;13.20;99.90
52187;DHT22;38161;53.020;6.598;2024-03-02T11:47:11;13.40;99.90
52187;DHT22;38161;53.020;6.598;2024-03-02T11:49:41;13.50;99.90
52187;DHT22;38161;53.020;6.598;2024-03-02T11:52:09;13.40;99.90
52187;DHT22;38161;53.020;6.598;2024-03-02T11:54:46;13.20;99.90
52187;DHT22;38161;53.020;6.598;2024-03-02T11:57:13;13.30;99.90
52187;DHT22;38161;53.020;6.598;2024-03-02T11:59:40;13.50;99.90
52187;DHT22;38161;53.020;6.598;2024-03-02T12:02:06;13.40;99.90
52187;DHT22;38161;53.020;6.598;2024-03-02T12:04:32;13.40;99.90
52187;DHT22;38161;53.020;6.598;2024-03-02T12:07:01;13.30;99.90
52187;DHT22;38161;53.020;6.598;2024-03-02T12:09:28;13.20;99.90
52187;DHT22;38161;53.020;6.598;2024-03-02T12:12:03;13.30;99.90
52187;DHT22;38161;53.020;6.598;2024-03-02T12:14:30;13.50;99.90
52187;DHT22;38161;53.020;6.598;2024-03-02T12:16:56;13.60;99.90
52187;DHT22;38161;53.020;6.598;2024-03-02T12:19:24;13.70;99.90
52187;DHT22;38161;53.020;6.598;2024-03-02T12:21:51;13.30;99.90
52187;DHT22;38161;53.020;6.598;2024-03-02T12:24:17;13.20;99.90
52187;DHT22;38161;53.020;6.598;2024-03-02T12:26:43;13.10;99.90
52187;DHT22;38161;53.020;6.598;2024-03-02T12:29:10;13.30;99.90
52187;DHT22;38161;53.020;6.598;2024-03-02T12:31:36;13.60;99.90
52187;DHT22;38161;53.020;6.598;2024-03-02T12:34:03;13.50;99.90
52187;DHT22;38161;53.020;6.598;2024-03-02T12:36:29;13.60;99.90
52187;DHT22;38161;53.020;6.598;2024-03-02T12:38:55;13.80;99.90
52187;DHT22;38161;53.020;6.598;2024-03-02T12:41:21;13.90;99.90
52187;DHT22;38161;53.020;6.598;2024-03-02T12:43:47;14.00;99.90
52187;DHT22;38161;53.020;6.598;2024-03-02T12:46:13;14.10;99.90
52187;DHT22;38161;53.020;6.598;2024-03-02T12:48:39;14.10;99.90
52187;DHT22;38161;53.020;6.598;2024-03-02T12:51:06;14.10;99.90
52187;DHT22;38161;53.020;6.598;2024-03-02T12:53:32;14.10;99.90
52187;DHT22;38161;53.020;6.598;2024-03-02T12:55:58;13.90;99.90
52187;DHT22;38161;53.020;6.598;2024-03-02T12:58:24;13.80;99.90
52187;DHT22;38161;53.020;6.598;2024-03-02T13:01:06;13.80;99.90
52187;DHT22;38161;53.020;6.598;2024-03-02T13:03:38;14.00;99.90
52187;DHT22;38161;53.020;6.598;2024-03-02T13:06:05;13.90;99.90
52187;DHT22;38161;53.020;6.598;2024-03-02T13:08:32;13.90;99.90
52187;DHT22;38161;53.020;6.598;2024-03-02T13:10:58;13.90;99.90
52187;DHT22;38161;53.020;6.598;2024-03-02T13:13:24;14.20;99.90
52187;DHT22;38161;53.020;6.598;2024-03-02T13:15:50;14.60;99.90
52187;DHT22;38161;53.020;6.598;2024-03-02T13:18:19;14.90;99.90
52187;DHT22;38161;53.020;6.598;2024-03-02T13:20:45;15.10;99.90
52187;DHT22;38161;53.020;6.598;2024-03-02T13:23:11;15.10;99.90
52187;DHT22;38161;53.020;6.598;2024-03-02T13:25:37;15.10;99.90
52187;DHT22;38161;53.020;6.598;2024-03-02T13:28:03;15.10;99.90
52187;DHT22;38161;53.020;6.598;2024-03-02T13:30:32;15.10;99.90
52187;DHT22;38161;53.020;6.598;2024-03-02T13:32:58;15.10;99.90
52187;DHT22;38161;53.020;6.598;2024-03-02T13:35:24;15.10;99.90
52187;DHT22;38161;53.020;6.598;2024-03-02T13:37:50;15.20;99.90
52187;DHT22;38161;53.020;6.598;2024-03-02T13:40:16;15.20;99.90
52187;DHT22;38161;53.020;6.598;2024-03-02T13:42:46;15.20;99.90
52187;DHT22;38161;53.020;6.598;2024-03-02T13:45:13;15.10;99.90
52187;DHT22;38161;53.020;6.598;2024-03-02T13:47:39;14.90;99.90
52187;DHT22;38161;53.020;6.598;2024-03-02T13:50:05;14.70;99.90
52187;DHT22;38161;53.020;6.598;2024-03-02T13:52:32;14.50;99.90
52187;DHT22;38161;53.020;6.598;2024-03-02T13:54:58;14.30;99.90
52187;DHT22;38161;53.020;6.598;2024-03-02T13:57:24;14.10;99.90
52187;DHT22;38161;53.020;6.598;2024-03-02T13:59:50;13.90;99.90
52187;DHT22;38161;53.020;6.598;2024-03-02T14:02:17;13.80;99.90
52187;DHT22;38161;53.020;6.598;2024-03-02T14:04:44;13.60;99.90
52187;DHT22;38161;53.020;6.598;2024-03-02T14:07:10;13.60;99.90
52187;DHT22;38161;53.020;6.598;2024-03-02T14:09:38;13.50;99.90
52187;DHT22;38161;53.020;6.598;2024-03-02T14:12:05;13.30;99.90
52187;DHT22;38161;53.020;6.598;2024-03-02T14:14:31;13.20;99.90
52187;DHT22;38161;53.020;6.598;2024-03-02T14:16:57;13.20;99.90
52187;DHT22;38161;53.020;6.598;2024-03-02T14:19:29;13.10;99.90
52187;DHT22;38161;53.020;6.598;2024-03-02T14:21:54;13.10;99.90
52187;DHT22;38161;53.020;6.598;2024-03-02T14:24:21;13.10;99.90
52187;DHT22;38161;53.020;6.598;2024-03-02T14:26:54;13.10;99.90
52187;DHT22;38161;53.020;6.598;2024-03-02T14:29:20;13.10;99.90
52187;DHT22;38161;53.020;6.598;2024-03-02T14:31:45;13.10;99.90
52187;DHT22;38161;53.020;6.598;2024-03-02T14:34:14;13.00;99.90
52187;DHT22;38161;53.020;6.598;2024-03-02T14:36:40;13.10;99.90
52187;DHT22;38161;53.020;6.598;2024-03-02T14:39:09;13.00;99.90
52187;DHT22;38161;53.020;6.598;2024-03-02T14:41:36;13.00;99.90
52187;DHT22;38161;53.020;6.598;2024-03-02T14:44:02;13.00;99.90
52187;DHT22;38161;53.020;6.598;2024-03-02T14:46:30;13.00;99.90
52187;DHT22;38161;53.020;6.598;2024-03-02T14:48:56;13.00;99.90
52187;DHT22;38161;53.020;6.598;2024-03-02T14:51:21;13.00;99.90
52187;DHT22;38161;53.020;6.598;2024-03-02T14:53:47;13.00;99.90
52187;DHT22;38161;53.020;6.598;2024-03-02T14:56:16;13.00;99.90
52187;DHT22;38161;53.020;6.598;2024-03-02T14:58:43;13.00;99.90
52187;DHT22;38161;53.020;6.598;2024-03-02T15:01:09;13.00;99.90
52187;DHT22;38161;53.020;6.598;2024-03-02T15:03:35;13.00;99.90
52187;DHT22;38161;53.020;6.598;2024-03-02T15:06:01;13.00;99.90
52187;DHT22;38161;53.020;6.598;2024-03-02T15:08:29;13.00;99.90
52187;DHT22;38161;53.020;6.598;2024-03-02T15:10:55;12.90;99.90
52187;DHT22;38161;53.020;6.598;2024-03-02T15:13:22;12.90;99.90
52187;DHT22;38161;53.020;6.598;2024-03-02T15:15:47;12.80;99.90
52187;DHT22;38161;53.020;6.598;2024-03-02T15:18:13;12.80;99.90
52187;DHT22;38161;53.020;6.598;2024-03-02T15:20:39;12.70;99.90
52187;DHT22;38161;53.020;6.598;2024-03-02T15:23:06;12.70;99.90
52187;DHT22;38161;53.020;6.598;2024-03-02T15:25:32;12.60;99.90
52187;DHT22;38161;53.020;6.598;2024-03-02T15:27:57;12.50;99.90
52187;DHT22;38161;53.020;6.598;2024-03-02T15:30:23;12.40;99.90
52187;DHT22;38161;53.020;6.598;2024-03-02T15:32:49;12.30;99.90
52187;DHT22;38161;53.020;6.598;2024-03-02T15:35:15;12.30;99.90
52187;DHT22;38161;53.020;6.598;2024-03-02T15:37:40;12.10;99.90
52187;DHT22;38161;53.020;6.598;2024-03-02T15:40:07;12.10;99.90
52187;DHT22;38161;53.020;6.598;2024-03-02T15:42:34;12.00;99.90
52187;DHT22;38161;53.020;6.598;2024-03-02T15:45:00;12.00;99.90
52187;DHT22;38161;53.020;6.598;2024-03-02T15:47:27;11.90;99.90
52187;DHT22;38161;53.020;6.598;2024-03-02T15:49:52;11.80;99.90